sensor_id;sensor_type;location;lat;lon;timestamp;temperature;humidity
68977;SHT31;56029;52.568;13.588;2023-10-31T00:01:23;12.16;95.61
68977;SHT31;56029;52.568;13.588;2023-10-31T00:03:49;12.23;95.49
68977;SHT31;56029;52.568;13.588;2023-10-31T00:06:14;12.30;95.59
68977;SHT31;56029;52.568;13.588;2023-10-31T00:08:40;12.36;95.21
68977;SHT31;56029;52.568;13.588;2023-10-31T00:11:05;12.37;95.20
68977;SHT31;56029;52.568;13.588;2023-10-31T00:13:31;12.39;95.23
68977;SHT31;56029;52.568;13.588;2023-10-31T00:15:56;12.39;95.26
68977;SHT31;56029;52.568;13.588;2023-10-31T00:18:22;12.39;95.15
68977;SHT31;56029;52.568;13.588;2023-10-31T00:20:47;12.40;95.46
68977;SHT31;56029;52.568;13.588;2023-10-31T00:23:14;12.41;95.50
68977;SHT31;56029;52.568;13.588;2023-10-31T00:25:40;12.37;95.44
68977;SHT31;56029;52.568;13.588;2023-10-31T00:28:06;12.39;95.45
68977;SHT31;56029;52.568;13.588;2023-10-31T00:30:31;12.41;95.37
68977;SHT31;56029;52.568;13.588;2023-10-31T00:32:57;12.40;95.39
68977;SHT31;56029;52.568;13.588;2023-10-31T00:35:23;12.33;95.57
68977;SHT31;56029;52.568;13.588;2023-10-31T00:37:48;12.34;95.77
68977;SHT31;56029;52.568;13.588;2023-10-31T00:40:14;12.32;95.89
68977;SHT31;56029;52.568;13.588;2023-10-31T00:42:39;12.30;96.01
68977;SHT31;56029;52.568;13.588;2023-10-31T00:45:05;12.30;96.05
68977;SHT31;56029;52.568;13.588;2023-10-31T00:47:30;12.30;95.99
68977;SHT31;56029;52.568;13.588;2023-10-31T00:49:56;12.32;96.18
68977;SHT31;56029;52.568;13.588;2023-10-31T00:52:21;12.33;96.26
68977;SHT31;56029;52.568;13.588;2023-10-31T00:54:47;12.32;96.17
68977;SHT31;56029;52.568;13.588;2023-10-31T00:57:13;12.30;96.14
68977;SHT31;56029;52.568;13.588;2023-10-31T00:59:38;12.32;96.08
68977;SHT31;56029;52.568;13.588;2023-10-31T01:02:04;12.33;96.15
68977;SHT31;56029;52.568;13.588;2023-10-31T01:04:29;12.30;96.42
68977;SHT31;56029;52.568;13.588;2023-10-31T01:06:55;12.32;96.51
68977;SHT31;56029;52.568;13.588;2023-10-31T01:09:20;12.29;96.56
68977;SHT31;56029;52.568;13.588;2023-10-31T01:11:46;12.29;96.77
68977;SHT31;56029;52.568;13.588;2023-10-31T01:14:12;12.23;96.96
68977;SHT31;56029;52.568;13.588;2023-10-31T01:16:37;12.29;96.87
68977;SHT31;56029;52.568;13.588;2023-10-31T01:19:03;12.22;97.24
68977;SHT31;56029;52.568;13.588;2023-10-31T01:21:28;12.23;97.15
68977;SHT31;56029;52.568;13.588;2023-10-31T01:23:54;12.23;97.09
68977;SHT31;56029;52.568;13.588;2023-10-31T01:26:19;12.26;97.15
68977;SHT31;56029;52.568;13.588;2023-10-31T01:28:45;12.18;97.40
68977;SHT31;56029;52.568;13.588;2023-10-31T01:31:10;12.11;98.07
68977;SHT31;56029;52.568;13.588;2023-10-31T01:33:36;12.22;97.48
68977;SHT31;56029;52.568;13.588;2023-10-31T01:36:04;12.22;97.29
68977;SHT31;56029;52.568;13.588;2023-10-31T01:38:30;12.23;97.38
68977;SHT31;56029;52.568;13.588;2023-10-31T01:40:55;11.98;98.19
68977;SHT31;56029;52.568;13.588;2023-10-31T01:43:35;12.15;97.65
68977;SHT31;56029;52.568;13.588;2023-10-31T01:46:01;12.18;97.61
68977;SHT31;56029;52.568;13.588;2023-10-31T01:48:29;12.13;98.19
68977;SHT31;56029;52.568;13.588;2023-10-31T01:50:55;12.20;97.88
68977;SHT31;56029;52.568;13.588;2023-10-31T01:53:23;12.03;98.44
68977;SHT31;56029;52.568;13.588;2023-10-31T01:55:50;12.16;97.99
68977;SHT31;56029;52.568;13.588;2023-10-31T01:58:16;12.20;97.91
68977;SHT31;56029;52.568;13.588;2023-10-31T02:00:42;12.19;97.81
68977;SHT31;56029;52.568;13.588;2023-10-31T02:03:08;12.26;97.74
68977;SHT31;56029;52.568;13.588;2023-10-31T02:05:34;12.25;97.72
68977;SHT31;56029;52.568;13.588;2023-10-31T02:08:01;12.23;97.73
68977;SHT31;56029;52.568;13.588;2023-10-31T02:10:28;12.23;97.76
68977;SHT31;56029;52.568;13.588;2023-10-31T02:12:54;12.20;97.81
68977;SHT31;56029;52.568;13.588;2023-10-31T02:15:19;12.13;98.22
68977;SHT31;56029;52.568;13.588;2023-10-31T02:17:45;12.11;98.24
68977;SHT31;56029;52.568;13.588;2023-10-31T02:20:10;12.16;98.24
68977;SHT31;56029;52.568;13.588;2023-10-31T02:22:36;12.16;98.21
68977;SHT31;56029;52.568;13.588;2023-10-31T02:25:01;12.08;98.63
68977;SHT31;56029;52.568;13.588;2023-10-31T02:27:27;12.12;98.31
68977;SHT31;56029;52.568;13.588;2023-10-31T02:29:52;12.16;98.17
68977;SHT31;56029;52.568;13.588;2023-10-31T02:32:18;12.19;98.14
68977;SHT31;56029;52.568;13.588;2023-10-31T02:34:45;12.08;98.49
68977;SHT31;56029;52.568;13.588;2023-10-31T02:37:11;12.08;98.43
68977;SHT31;56029;52.568;13.588;2023-10-31T02:39:37;12.11;98.39
68977;SHT31;56029;52.568;13.588;2023-10-31T02:42:03;12.03;98.56
68977;SHT31;56029;52.568;13.588;2023-10-31T02:44:28;12.02;98.56
68977;SHT31;56029;52.568;13.588;2023-10-31T02:46:54;12.03;98.53
68977;SHT31;56029;52.568;13.588;2023-10-31T02:49:20;12.03;98.52
68977;SHT31;56029;52.568;13.588;2023-10-31T02:51:45;12.09;98.45
68977;SHT31;56029;52.568;13.588;2023-10-31T02:54:11;12.11;98.41
68977;SHT31;56029;52.568;13.588;2023-10-31T02:56:36;12.08;98.53
68977;SHT31;56029;52.568;13.588;2023-10-31T02:59:02;12.09;98.38
68977;SHT31;56029;52.568;13.588;2023-10-31T03:01:28;12.12;98.39
68977;SHT31;56029;52.568;13.588;2023-10-31T03:03:54;12.09;98.41
68977;SHT31;56029;52.568;13.588;2023-10-31T03:06:19;12.12;98.35
68977;SHT31;56029;52.568;13.588;2023-10-31T03:08:45;12.13;98.26
68977;SHT31;56029;52.568;13.588;2023-10-31T03:11:25;12.16;98.26
68977;SHT31;56029;52.568;13.588;2023-10-31T03:13:51;12.18;98.36
68977;SHT31;56029;52.568;13.588;2023-10-31T03:16:16;12.06;98.47
68977;SHT31;56029;52.568;13.588;2023-10-31T03:18:42;12.11;98.63
68977;SHT31;56029;52.568;13.588;2023-10-31T03:21:08;12.03;98.95
68977;SHT31;56029;52.568;13.588;2023-10-31T03:23:33;11.88;99.43
68977;SHT31;56029;52.568;13.588;2023-10-31T03:25:59;11.95;99.16
68977;SHT31;56029;52.568;13.588;2023-10-31T03:28:24;11.95;99.47
68977;SHT31;56029;52.568;13.588;2023-10-31T03:30:50;12.06;99.01
68977;SHT31;56029;52.568;13.588;2023-10-31T03:33:16;12.09;98.93
68977;SHT31;56029;52.568;13.588;2023-10-31T03:35:42;12.06;98.99
68977;SHT31;56029;52.568;13.588;2023-10-31T03:38:07;12.11;98.88
68977;SHT31;56029;52.568;13.588;2023-10-31T03:40:33;12.11;99.08
68977;SHT31;56029;52.568;13.588;2023-10-31T03:42:58;12.16;98.96
68977;SHT31;56029;52.568;13.588;2023-10-31T03:45:24;12.19;98.80
68977;SHT31;56029;52.568;13.588;2023-10-31T03:47:49;12.20;98.78
68977;SHT31;56029;52.568;13.588;2023-10-31T03:50:15;12.25;98.70
68977;SHT31;56029;52.568;13.588;2023-10-31T03:52:41;12.22;98.82
68977;SHT31;56029;52.568;13.588;2023-10-31T03:55:07;12.22;98.82
68977;SHT31;56029;52.568;13.588;2023-10-31T03:57:33;12.23;98.93
68977;SHT31;56029;52.568;13.588;2023-10-31T03:59:58;12.16;99.31
68977;SHT31;56029;52.568;13.588;2023-10-31T04:02:24;12.11;99.60
68977;SHT31;56029;52.568;13.588;2023-10-31T04:04:49;12.20;99.22
68977;SHT31;56029;52.568;13.588;2023-10-31T04:07:15;12.13;99.65
68977;SHT31;56029;52.568;13.588;2023-10-31T04:09:40;12.09;99.91
68977;SHT31;56029;52.568;13.588;2023-10-31T04:12:06;12.18;99.58
68977;SHT31;56029;52.568;13.588;2023-10-31T04:14:32;12.13;99.76
68977;SHT31;56029;52.568;13.588;2023-10-31T04:16:57;12.11;99.91
68977;SHT31;56029;52.568;13.588;2023-10-31T04:19:23;12.05;99.99
68977;SHT31;56029;52.568;13.588;2023-10-31T04:21:48;12.02;99.99
68977;SHT31;56029;52.568;13.588;2023-10-31T04:24:14;12.11;99.99
68977;SHT31;56029;52.568;13.588;2023-10-31T04:26:40;12.03;99.99
68977;SHT31;56029;52.568;13.588;2023-10-31T04:29:06;12.12;99.99
68977;SHT31;56029;52.568;13.588;2023-10-31T04:31:31;12.13;99.99
68977;SHT31;56029;52.568;13.588;2023-10-31T04:33:57;12.08;99.99
68977;SHT31;56029;52.568;13.588;2023-10-31T04:36:22;12.08;99.99
68977;SHT31;56029;52.568;13.588;2023-10-31T04:38:48;12.11;99.99
68977;SHT31;56029;52.568;13.588;2023-10-31T04:41:13;12.11;99.99
68977;SHT31;56029;52.568;13.588;2023-10-31T04:43:39;12.08;99.99
68977;SHT31;56029;52.568;13.588;2023-10-31T04:46:04;12.12;99.99
68977;SHT31;56029;52.568;13.588;2023-10-31T04:48:30;12.16;99.99
68977;SHT31;56029;52.568;13.588;2023-10-31T04:50:55;12.12;99.99
68977;SHT31;56029;52.568;13.588;2023-10-31T04:53:21;12.18;99.99
68977;SHT31;56029;52.568;13.588;2023-10-31T04:55:46;12.15;99.99
68977;SHT31;56029;52.568;13.588;2023-10-31T04:58:14;12.09;99.99
68977;SHT31;56029;52.568;13.588;2023-10-31T05:00:39;12.15;99.99
68977;SHT31;56029;52.568;13.588;2023-10-31T05:03:05;12.15;99.99
68977;SHT31;56029;52.568;13.588;2023-10-31T05:05:30;12.15;99.99
68977;SHT31;56029;52.568;13.588;2023-10-31T05:07:56;12.12;99.99
68977;SHT31;56029;52.568;13.588;2023-10-31T05:10:21;12.18;99.99
68977;SHT31;56029;52.568;13.588;2023-10-31T05:12:47;12.19;99.99
68977;SHT31;56029;52.568;13.588;2023-10-31T05:15:12;12.25;99.99
68977;SHT31;56029;52.568;13.588;2023-10-31T05:17:38;12.16;99.99
68977;SHT31;56029;52.568;13.588;2023-10-31T05:20:03;12.18;99.99
68977;SHT31;56029;52.568;13.588;2023-10-31T05:22:29;12.16;99.99
68977;SHT31;56029;52.568;13.588;2023-10-31T05:24:55;12.23;99.99
68977;SHT31;56029;52.568;13.588;2023-10-31T05:27:20;12.25;99.99
68977;SHT31;56029;52.568;13.588;2023-10-31T05:29:46;12.25;99.99
68977;SHT31;56029;52.568;13.588;2023-10-31T05:32:11;12.20;99.99
68977;SHT31;56029;52.568;13.588;2023-10-31T05:34:37;12.23;99.99
68977;SHT31;56029;52.568;13.588;2023-10-31T05:37:02;12.16;99.99
68977;SHT31;56029;52.568;13.588;2023-10-31T05:39:28;12.22;99.99
68977;SHT31;56029;52.568;13.588;2023-10-31T05:41:53;12.22;99.99
68977;SHT31;56029;52.568;13.588;2023-10-31T05:44:19;12.26;99.99
68977;SHT31;56029;52.568;13.588;2023-10-31T05:46:44;12.23;99.99
68977;SHT31;56029;52.568;13.588;2023-10-31T05:49:10;12.34;99.99
68977;SHT31;56029;52.568;13.588;2023-10-31T05:51:36;12.32;99.99
68977;SHT31;56029;52.568;13.588;2023-10-31T05:54:01;12.30;99.99
68977;SHT31;56029;52.568;13.588;2023-10-31T05:56:27;12.34;99.99
68977;SHT31;56029;52.568;13.588;2023-10-31T05:58:52;12.34;99.99
68977;SHT31;56029;52.568;13.588;2023-10-31T06:01:18;12.34;99.99
68977;SHT31;56029;52.568;13.588;2023-10-31T06:03:43;12.41;99.99
68977;SHT31;56029;52.568;13.588;2023-10-31T06:06:10;12.37;99.99
68977;SHT31;56029;52.568;13.588;2023-10-31T06:08:35;12.41;99.99
68977;SHT31;56029;52.568;13.588;2023-10-31T06:11:01;12.40;99.99
68977;SHT31;56029;52.568;13.588;2023-10-31T06:13:28;12.44;99.99
68977;SHT31;56029;52.568;13.588;2023-10-31T06:15:54;12.44;99.99
68977;SHT31;56029;52.568;13.588;2023-10-31T06:18:20;12.51;99.99
68977;SHT31;56029;52.568;13.588;2023-10-31T06:20:46;12.54;99.99
68977;SHT31;56029;52.568;13.588;2023-10-31T06:23:11;12.59;99.99
68977;SHT31;56029;52.568;13.588;2023-10-31T06:25:37;12.57;99.99
68977;SHT31;56029;52.568;13.588;2023-10-31T06:28:05;12.60;99.99
68977;SHT31;56029;52.568;13.588;2023-10-31T06:30:30;12.64;99.99
68977;SHT31;56029;52.568;13.588;2023-10-31T06:32:56;12.65;99.99
68977;SHT31;56029;52.568;13.588;2023-10-31T06:35:23;12.63;99.99
68977;SHT31;56029;52.568;13.588;2023-10-31T06:37:52;12.73;99.99
68977;SHT31;56029;52.568;13.588;2023-10-31T06:40:18;12.71;99.99
68977;SHT31;56029;52.568;13.588;2023-10-31T06:42:43;12.73;99.99
68977;SHT31;56029;52.568;13.588;2023-10-31T06:45:09;12.74;99.99
68977;SHT31;56029;52.568;13.588;2023-10-31T06:47:34;12.80;99.99
68977;SHT31;56029;52.568;13.588;2023-10-31T06:50:00;12.76;99.99
68977;SHT31;56029;52.568;13.588;2023-10-31T06:52:25;12.73;99.99
68977;SHT31;56029;52.568;13.588;2023-10-31T06:54:51;12.76;99.99
68977;SHT31;56029;52.568;13.588;2023-10-31T06:57:17;12.84;99.99
68977;SHT31;56029;52.568;13.588;2023-10-31T06:59:42;12.91;99.99
68977;SHT31;56029;52.568;13.588;2023-10-31T07:02:08;12.91;99.99
68977;SHT31;56029;52.568;13.588;2023-10-31T07:04:33;12.92;99.99
68977;SHT31;56029;52.568;13.588;2023-10-31T07:06:59;12.90;99.99
68977;SHT31;56029;52.568;13.588;2023-10-31T07:09:25;12.97;99.99
68977;SHT31;56029;52.568;13.588;2023-10-31T07:11:50;12.99;99.99
68977;SHT31;56029;52.568;13.588;2023-10-31T07:14:19;12.97;99.99
68977;SHT31;56029;52.568;13.588;2023-10-31T07:16:44;12.99;99.99
68977;SHT31;56029;52.568;13.588;2023-10-31T07:19:13;13.07;99.99
68977;SHT31;56029;52.568;13.588;2023-10-31T07:21:39;13.08;99.99
68977;SHT31;56029;52.568;13.588;2023-10-31T07:24:04;13.14;99.99
68977;SHT31;56029;52.568;13.588;2023-10-31T07:26:30;13.20;99.99
68977;SHT31;56029;52.568;13.588;2023-10-31T07:28:56;13.18;99.99
68977;SHT31;56029;52.568;13.588;2023-10-31T07:31:24;13.18;99.99
68977;SHT31;56029;52.568;13.588;2023-10-31T07:33:49;13.18;99.99
68977;SHT31;56029;52.568;13.588;2023-10-31T07:36:22;13.20;99.99
68977;SHT31;56029;52.568;13.588;2023-10-31T07:38:50;13.20;99.99
68977;SHT31;56029;52.568;13.588;2023-10-31T07:41:16;13.18;99.99
68977;SHT31;56029;52.568;13.588;2023-10-31T07:43:41;13.20;99.51
68977;SHT31;56029;52.568;13.588;2023-10-31T07:46:09;13.15;98.56
68977;SHT31;56029;52.568;13.588;2023-10-31T07:48:34;13.16;97.95
68977;SHT31;56029;52.568;13.588;2023-10-31T07:51:00;13.20;97.94
68977;SHT31;56029;52.568;13.588;2023-10-31T07:53:25;13.12;97.43
68977;SHT31;56029;52.568;13.588;2023-10-31T07:55:51;13.11;96.37
68977;SHT31;56029;52.568;13.588;2023-10-31T07:58:16;13.12;96.46
68977;SHT31;56029;52.568;13.588;2023-10-31T08:00:44;13.05;95.29
68977;SHT31;56029;52.568;13.588;2023-10-31T08:03:10;13.11;94.81
68977;SHT31;56029;52.568;13.588;2023-10-31T08:05:35;13.05;95.44
68977;SHT31;56029;52.568;13.588;2023-10-31T08:08:01;13.02;94.39
68977;SHT31;56029;52.568;13.588;2023-10-31T08:10:27;12.98;94.88
68977;SHT31;56029;52.568;13.588;2023-10-31T08:12:52;12.88;93.53
68977;SHT31;56029;52.568;13.588;2023-10-31T08:15:18;12.91;93.81
68977;SHT31;56029;52.568;13.588;2023-10-31T08:17:43;12.91;93.60
68977;SHT31;56029;52.568;13.588;2023-10-31T08:20:09;12.92;93.42
68977;SHT31;56029;52.568;13.588;2023-10-31T08:22:36;12.88;92.32
68977;SHT31;56029;52.568;13.588;2023-10-31T08:25:02;12.84;91.84
68977;SHT31;56029;52.568;13.588;2023-10-31T08:27:27;12.92;91.85
68977;SHT31;56029;52.568;13.588;2023-10-31T08:29:53;13.07;91.09
68977;SHT31;56029;52.568;13.588;2023-10-31T08:32:18;13.05;90.98
68977;SHT31;56029;52.568;13.588;2023-10-31T08:34:44;12.91;91.00
68977;SHT31;56029;52.568;13.588;2023-10-31T08:37:09;13.01;90.85
68977;SHT31;56029;52.568;13.588;2023-10-31T08:39:35;13.02;90.70
68977;SHT31;56029;52.568;13.588;2023-10-31T08:42:00;12.92;90.40
68977;SHT31;56029;52.568;13.588;2023-10-31T08:44:26;12.91;89.90
68977;SHT31;56029;52.568;13.588;2023-10-31T08:46:51;12.95;89.79
68977;SHT31;56029;52.568;13.588;2023-10-31T08:49:20;12.85;88.88
68977;SHT31;56029;52.568;13.588;2023-10-31T08:51:46;12.90;89.02
68977;SHT31;56029;52.568;13.588;2023-10-31T08:54:11;13.05;89.07
68977;SHT31;56029;52.568;13.588;2023-10-31T08:56:37;12.95;88.56
68977;SHT31;56029;52.568;13.588;2023-10-31T08:59:02;12.90;89.00
68977;SHT31;56029;52.568;13.588;2023-10-31T09:01:28;12.95;88.62
68977;SHT31;56029;52.568;13.588;2023-10-31T09:03:53;12.90;88.08
68977;SHT31;56029;52.568;13.588;2023-10-31T09:06:19;12.87;87.52
68977;SHT31;56029;52.568;13.588;2023-10-31T09:08:44;12.85;87.28
68977;SHT31;56029;52.568;13.588;2023-10-31T09:11:10;12.94;88.42
68977;SHT31;56029;52.568;13.588;2023-10-31T09:13:36;12.94;87.28
68977;SHT31;56029;52.568;13.588;2023-10-31T09:16:01;12.91;87.59
68977;SHT31;56029;52.568;13.588;2023-10-31T09:18:30;13.05;88.60
68977;SHT31;56029;52.568;13.588;2023-10-31T09:20:56;13.02;87.59
68977;SHT31;56029;52.568;13.588;2023-10-31T09:23:21;12.84;86.06
68977;SHT31;56029;52.568;13.588;2023-10-31T09:25:47;12.98;85.64
68977;SHT31;56029;52.568;13.588;2023-10-31T09:28:12;13.11;86.44
68977;SHT31;56029;52.568;13.588;2023-10-31T09:30:38;13.26;85.27
68977;SHT31;56029;52.568;13.588;2023-10-31T09:33:04;13.26;86.01
68977;SHT31;56029;52.568;13.588;2023-10-31T09:35:29;13.14;84.48
68977;SHT31;56029;52.568;13.588;2023-10-31T09:37:55;13.18;85.16
68977;SHT31;56029;52.568;13.588;2023-10-31T09:40:20;13.02;84.91
68977;SHT31;56029;52.568;13.588;2023-10-31T09:42:47;12.95;84.41
68977;SHT31;56029;52.568;13.588;2023-10-31T09:45:13;12.94;84.25
68977;SHT31;56029;52.568;13.588;2023-10-31T09:47:39;12.94;85.07
68977;SHT31;56029;52.568;13.588;2023-10-31T09:50:05;13.01;83.80
68977;SHT31;56029;52.568;13.588;2023-10-31T09:52:32;12.91;83.87
68977;SHT31;56029;52.568;13.588;2023-10-31T09:54:57;12.94;84.12
68977;SHT31;56029;52.568;13.588;2023-10-31T09:57:24;12.94;84.02
68977;SHT31;56029;52.568;13.588;2023-10-31T09:59:49;12.91;84.48
68977;SHT31;56029;52.568;13.588;2023-10-31T10:02:15;13.04;83.86
68977;SHT31;56029;52.568;13.588;2023-10-31T10:04:41;13.09;84.15
68977;SHT31;56029;52.568;13.588;2023-10-31T10:07:07;13.08;83.61
68977;SHT31;56029;52.568;13.588;2023-10-31T10:09:32;13.12;83.67
68977;SHT31;56029;52.568;13.588;2023-10-31T10:12:01;13.19;84.10
68977;SHT31;56029;52.568;13.588;2023-10-31T10:14:27;13.12;83.49
68977;SHT31;56029;52.568;13.588;2023-10-31T10:16:53;13.14;83.38
68977;SHT31;56029;52.568;13.588;2023-10-31T10:19:20;13.11;83.29
68977;SHT31;56029;52.568;13.588;2023-10-31T10:21:55;13.15;82.91
68977;SHT31;56029;52.568;13.588;2023-10-31T10:24:22;13.14;83.65
68977;SHT31;56029;52.568;13.588;2023-10-31T10:26:48;13.25;83.37
68977;SHT31;56029;52.568;13.588;2023-10-31T10:29:14;13.39;83.43
68977;SHT31;56029;52.568;13.588;2023-10-31T10:31:40;13.46;82.63
68977;SHT31;56029;52.568;13.588;2023-10-31T10:34:07;13.45;81.99
68977;SHT31;56029;52.568;13.588;2023-10-31T10:36:33;13.50;82.62
68977;SHT31;56029;52.568;13.588;2023-10-31T10:38:59;13.60;82.87
68977;SHT31;56029;52.568;13.588;2023-10-31T10:41:26;13.60;83.14
68977;SHT31;56029;52.568;13.588;2023-10-31T10:43:57;13.56;82.50
68977;SHT31;56029;52.568;13.588;2023-10-31T10:46:27;13.42;82.80
68977;SHT31;56029;52.568;13.588;2023-10-31T10:48:59;13.62;82.72
68977;SHT31;56029;52.568;13.588;2023-10-31T10:54:08;13.73;81.44
68977;SHT31;56029;52.568;13.588;2023-10-31T10:56:38;13.83;81.51
68977;SHT31;56029;52.568;13.588;2023-10-31T10:59:14;13.80;81.73
68977;SHT31;56029;52.568;13.588;2023-10-31T11:01:40;13.69;81.44
68977;SHT31;56029;52.568;13.588;2023-10-31T11:04:06;13.74;81.57
68977;SHT31;56029;52.568;13.588;2023-10-31T11:06:33;13.80;81.57
68977;SHT31;56029;52.568;13.588;2023-10-31T11:08:59;13.74;81.61
68977;SHT31;56029;52.568;13.588;2023-10-31T11:11:25;13.80;81.47
68977;SHT31;56029;52.568;13.588;2023-10-31T11:13:52;13.74;81.18
68977;SHT31;56029;52.568;13.588;2023-10-31T11:16:28;13.80;80.78
68977;SHT31;56029;52.568;13.588;2023-10-31T11:18:54;13.87;81.14
68977;SHT31;56029;52.568;13.588;2023-10-31T11:21:22;13.90;81.28
68977;SHT31;56029;52.568;13.588;2023-10-31T11:23:59;14.03;80.67
68977;SHT31;56029;52.568;13.588;2023-10-31T11:26:29;14.04;80.55
68977;SHT31;56029;52.568;13.588;2023-10-31T11:29:07;14.03;80.08
68977;SHT31;56029;52.568;13.588;2023-10-31T11:31:37;14.01;80.38
68977;SHT31;56029;52.568;13.588;2023-10-31T11:34:02;13.97;80.43
68977;SHT31;56029;52.568;13.588;2023-10-31T11:36:32;13.86;80.75
68977;SHT31;56029;52.568;13.588;2023-10-31T11:39:10;13.84;80.67
68977;SHT31;56029;52.568;13.588;2023-10-31T11:41:37;13.81;81.07
68977;SHT31;56029;52.568;13.588;2023-10-31T11:44:08;13.80;80.54
68977;SHT31;56029;52.568;13.588;2023-10-31T11:46:34;13.83;81.01
68977;SHT31;56029;52.568;13.588;2023-10-31T11:48:59;13.74;80.93
68977;SHT31;56029;52.568;13.588;2023-10-31T11:51:26;13.69;81.02
68977;SHT31;56029;52.568;13.588;2023-10-31T11:53:51;13.80;81.13
68977;SHT31;56029;52.568;13.588;2023-10-31T11:56:18;13.83;81.12
68977;SHT31;56029;52.568;13.588;2023-10-31T11:58:43;13.87;80.89
68977;SHT31;56029;52.568;13.588;2023-10-31T12:01:10;13.91;81.34
68977;SHT31;56029;52.568;13.588;2023-10-31T12:03:40;13.93;81.42
68977;SHT31;56029;52.568;13.588;2023-10-31T12:06:07;13.81;80.79
68977;SHT31;56029;52.568;13.588;2023-10-31T12:08:41;13.83;82.08
68977;SHT31;56029;52.568;13.588;2023-10-31T12:11:14;13.77;80.96
68977;SHT31;56029;52.568;13.588;2023-10-31T12:13:41;13.84;81.59
68977;SHT31;56029;52.568;13.588;2023-10-31T12:16:10;13.90;81.89
68977;SHT31;56029;52.568;13.588;2023-10-31T12:18:36;13.77;80.26
68977;SHT31;56029;52.568;13.588;2023-10-31T12:21:03;13.77;80.12
68977;SHT31;56029;52.568;13.588;2023-10-31T12:23:28;13.71;80.21
68977;SHT31;56029;52.568;13.588;2023-10-31T12:25:54;13.69;80.29
68977;SHT31;56029;52.568;13.588;2023-10-31T12:28:21;13.66;80.62
68977;SHT31;56029;52.568;13.588;2023-10-31T12:30:48;13.57;81.37
68977;SHT31;56029;52.568;13.588;2023-10-31T12:33:14;13.65;81.22
68977;SHT31;56029;52.568;13.588;2023-10-31T12:35:40;13.60;81.49
68977;SHT31;56029;52.568;13.588;2023-10-31T12:38:07;13.62;81.21
68977;SHT31;56029;52.568;13.588;2023-10-31T12:40:33;13.57;81.01
68977;SHT31;56029;52.568;13.588;2023-10-31T12:42:59;13.71;80.88
68977;SHT31;56029;52.568;13.588;2023-10-31T12:45:25;13.73;80.79
68977;SHT31;56029;52.568;13.588;2023-10-31T12:48:07;13.83;80.48
68977;SHT31;56029;52.568;13.588;2023-10-31T12:50:33;13.81;79.89
68977;SHT31;56029;52.568;13.588;2023-10-31T12:52:59;13.74;79.39
68977;SHT31;56029;52.568;13.588;2023-10-31T12:55:27;13.70;79.91
68977;SHT31;56029;52.568;13.588;2023-10-31T12:57:52;13.52;80.28
68977;SHT31;56029;52.568;13.588;2023-10-31T13:00:20;13.53;79.96
68977;SHT31;56029;52.568;13.588;2023-10-31T13:02:45;13.48;80.18
68977;SHT31;56029;52.568;13.588;2023-10-31T13:05:13;13.48;80.85
68977;SHT31;56029;52.568;13.588;2023-10-31T13:07:49;13.50;80.55
68977;SHT31;56029;52.568;13.588;2023-10-31T13:10:15;13.46;80.54
68977;SHT31;56029;52.568;13.588;2023-10-31T13:12:44;13.40;80.12
68977;SHT31;56029;52.568;13.588;2023-10-31T13:15:09;13.35;80.32
68977;SHT31;56029;52.568;13.588;2023-10-31T13:17:35;13.38;80.14
68977;SHT31;56029;52.568;13.588;2023-10-31T13:20:00;13.38;80.38
68977;SHT31;56029;52.568;13.588;2023-10-31T13:22:26;13.35;80.62
68977;SHT31;56029;52.568;13.588;2023-10-31T13:24:51;13.26;80.90
68977;SHT31;56029;52.568;13.588;2023-10-31T13:27:17;13.32;80.30
68977;SHT31;56029;52.568;13.588;2023-10-31T13:29:42;13.34;80.36
68977;SHT31;56029;52.568;13.588;2023-10-31T13:32:11;13.38;80.17
68977;SHT31;56029;52.568;13.588;2023-10-31T13:34:36;13.46;80.49
68977;SHT31;56029;52.568;13.588;2023-10-31T13:37:02;13.40;80.16
68977;SHT31;56029;52.568;13.588;2023-10-31T13:39:28;13.35;80.67
68977;SHT31;56029;52.568;13.588;2023-10-31T13:41:53;13.38;80.39
68977;SHT31;56029;52.568;13.588;2023-10-31T13:44:19;13.42;80.45
68977;SHT31;56029;52.568;13.588;2023-10-31T13:46:44;13.30;80.63
68977;SHT31;56029;52.568;13.588;2023-10-31T13:49:10;13.28;80.56
68977;SHT31;56029;52.568;13.588;2023-10-31T13:51:35;13.32;80.89
68977;SHT31;56029;52.568;13.588;2023-10-31T13:54:01;13.28;81.78
68977;SHT31;56029;52.568;13.588;2023-10-31T13:56:26;13.22;81.88
68977;SHT31;56029;52.568;13.588;2023-10-31T13:58:52;13.15;82.70
68977;SHT31;56029;52.568;13.588;2023-10-31T14:01:17;13.02;83.44
68977;SHT31;56029;52.568;13.588;2023-10-31T14:03:43;12.94;83.81
68977;SHT31;56029;52.568;13.588;2023-10-31T14:06:08;13.01;83.96
68977;SHT31;56029;52.568;13.588;2023-10-31T14:08:34;13.01;83.95
68977;SHT31;56029;52.568;13.588;2023-10-31T14:10:59;12.92;84.68
68977;SHT31;56029;52.568;13.588;2023-10-31T14:13:25;12.92;84.21
68977;SHT31;56029;52.568;13.588;2023-10-31T14:15:50;12.92;84.71
68977;SHT31;56029;52.568;13.588;2023-10-31T14:18:16;12.95;84.86
68977;SHT31;56029;52.568;13.588;2023-10-31T14:20:44;12.80;84.92
68977;SHT31;56029;52.568;13.588;2023-10-31T14:23:10;12.73;85.21
68977;SHT31;56029;52.568;13.588;2023-10-31T14:25:35;12.85;85.82
68977;SHT31;56029;52.568;13.588;2023-10-31T14:28:01;12.74;85.84
68977;SHT31;56029;52.568;13.588;2023-10-31T14:30:27;12.76;85.55
68977;SHT31;56029;52.568;13.588;2023-10-31T14:32:55;12.73;85.91
68977;SHT31;56029;52.568;13.588;2023-10-31T14:35:23;12.68;85.99
68977;SHT31;56029;52.568;13.588;2023-10-31T14:37:51;12.70;86.01
68977;SHT31;56029;52.568;13.588;2023-10-31T14:40:17;12.61;86.22
68977;SHT31;56029;52.568;13.588;2023-10-31T14:42:42;12.60;86.13
68977;SHT31;56029;52.568;13.588;2023-10-31T14:45:08;12.59;86.57
68977;SHT31;56029;52.568;13.588;2023-10-31T14:47:34;12.54;87.31
68977;SHT31;56029;52.568;13.588;2023-10-31T14:49:59;12.50;87.91
68977;SHT31;56029;52.568;13.588;2023-10-31T14:52:25;12.47;89.04
68977;SHT31;56029;52.568;13.588;2023-10-31T14:54:50;12.20;90.37
68977;SHT31;56029;52.568;13.588;2023-10-31T14:57:16;12.05;91.80
68977;SHT31;56029;52.568;13.588;2023-10-31T14:59:41;11.98;92.75
68977;SHT31;56029;52.568;13.588;2023-10-31T15:02:07;11.83;93.93
68977;SHT31;56029;52.568;13.588;2023-10-31T15:04:35;11.75;94.74
68977;SHT31;56029;52.568;13.588;2023-10-31T15:07:01;11.71;95.06
68977;SHT31;56029;52.568;13.588;2023-10-31T15:09:26;11.64;95.53
68977;SHT31;56029;52.568;13.588;2023-10-31T15:11:52;11.67;95.33